sensor_id;sensor_type;location;lat;lon;timestamp;temperature;humidity
49052;DHT22;34866;48.670;18.260;2023-07-31T00:00:40;384.40;2329.60
49052;DHT22;34866;48.670;18.260;2023-07-31T00:03:05;384.40;2329.60
49052;DHT22;34866;48.670;18.260;2023-07-31T00:05:31;384.40;2329.60
49052;DHT22;34866;48.670;18.260;2023-07-31T00:07:56;384.40;2329.60
49052;DHT22;34866;48.670;18.260;2023-07-31T00:10:22;384.30;2329.60
49052;DHT22;34866;48.670;18.260;2023-07-31T00:12:48;384.20;2329.60
49052;DHT22;34866;48.670;18.260;2023-07-31T00:15:14;384.00;2329.60
49052;DHT22;34866;48.670;18.260;2023-07-31T00:17:40;384.10;2329.60
49052;DHT22;34866;48.670;18.260;2023-07-31T00:20:07;359.30;2329.60
49052;DHT22;34866;48.670;18.260;2023-07-31T00:22:33;359.30;2329.60
49052;DHT22;34866;48.670;18.260;2023-07-31T00:24:58;384.10;2329.60
49052;DHT22;34866;48.670;18.260;2023-07-31T00:27:25;384.10;2329.60
49052;DHT22;34866;48.670;18.260;2023-07-31T00:29:51;384.00;2329.60
49052;DHT22;34866;48.670;18.260;2023-07-31T00:32:16;359.20;2329.60
49052;DHT22;34866;48.670;18.260;2023-07-31T00:34:42;359.30;2329.60
49052;DHT22;34866;48.670;18.260;2023-07-31T00:37:08;384.10;2329.60
49052;DHT22;34866;48.670;18.260;2023-07-31T00:39:34;359.20;2329.60
49052;DHT22;34866;48.670;18.260;2023-07-31T00:42:01;359.30;2329.60
49052;DHT22;34866;48.670;18.260;2023-07-31T00:44:26;359.10;2329.60
49052;DHT22;34866;48.670;18.260;2023-07-31T00:46:54;359.10;2329.60
49052;DHT22;34866;48.670;18.260;2023-07-31T00:49:21;359.20;2329.60
49052;DHT22;34866;48.670;18.260;2023-07-31T00:51:50;384.00;2329.60
49052;DHT22;34866;48.670;18.260;2023-07-31T00:54:15;359.30;2329.60
49052;DHT22;34866;48.670;18.260;2023-07-31T00:56:42;359.30;2329.60
49052;DHT22;34866;48.670;18.260;2023-07-31T00:59:09;359.20;2329.60
49052;DHT22;34866;48.670;18.260;2023-07-31T01:01:35;358.60;2329.60
49052;DHT22;34866;48.670;18.260;2023-07-31T01:04:01;359.20;2329.60
49052;DHT22;34866;48.670;18.260;2023-07-31T01:06:40;359.20;2329.60
49052;DHT22;34866;48.670;18.260;2023-07-31T01:09:11;359.10;2329.60
49052;DHT22;34866;48.670;18.260;2023-07-31T01:11:52;359.20;2329.60
49052;DHT22;34866;48.670;18.260;2023-07-31T01:14:18;359.10;2329.60
49052;DHT22;34866;48.670;18.260;2023-07-31T01:16:44;359.20;2329.60
49052;DHT22;34866;48.670;18.260;2023-07-31T01:19:11;359.10;2329.60
49052;DHT22;34866;48.670;18.260;2023-07-31T01:24:36;359.10;2329.60
49052;DHT22;34866;48.670;18.260;2023-07-31T01:27:12;359.00;2329.60
49052;DHT22;34866;48.670;18.260;2023-07-31T01:32:25;359.10;2329.60
49052;DHT22;34866;48.670;18.260;2023-07-31T01:34:53;359.00;2329.60
49052;DHT22;34866;48.670;18.260;2023-07-31T01:37:19;359.00;2329.60
49052;DHT22;34866;48.670;18.260;2023-07-31T01:39:45;358.90;2329.60
49052;DHT22;34866;48.670;18.260;2023-07-31T01:42:11;359.00;2329.60
49052;DHT22;34866;48.670;18.260;2023-07-31T01:44:36;358.90;2329.60
49052;DHT22;34866;48.670;18.260;2023-07-31T01:47:02;358.80;2329.60
49052;DHT22;34866;48.670;18.260;2023-07-31T01:49:28;358.80;2329.60
49052;DHT22;34866;48.670;18.260;2023-07-31T01:51:53;358.90;2329.60
49052;DHT22;34866;48.670;18.260;2023-07-31T01:54:19;359.00;2329.60
49052;DHT22;34866;48.670;18.260;2023-07-31T01:56:44;358.80;2329.60
49052;DHT22;34866;48.670;18.260;2023-07-31T01:59:10;358.60;2329.60
49052;DHT22;34866;48.670;18.260;2023-07-31T02:01:36;358.60;2329.60
49052;DHT22;34866;48.670;18.260;2023-07-31T02:04:02;358.60;2329.60
49052;DHT22;34866;48.670;18.260;2023-07-31T02:06:30;358.60;2329.60
49052;DHT22;34866;48.670;18.260;2023-07-31T02:08:56;358.60;2329.60
49052;DHT22;34866;48.670;18.260;2023-07-31T02:11:21;358.60;2329.60
49052;DHT22;34866;48.670;18.260;2023-07-31T02:13:47;358.70;2329.60
49052;DHT22;34866;48.670;18.260;2023-07-31T02:16:13;358.80;2329.60
49052;DHT22;34866;48.670;18.260;2023-07-31T02:18:40;358.80;2329.60
49052;DHT22;34866;48.670;18.260;2023-07-31T02:21:05;358.90;2329.60
49052;DHT22;34866;48.670;18.260;2023-07-31T02:23:31;358.70;2329.60
49052;DHT22;34866;48.670;18.260;2023-07-31T02:25:57;358.70;2329.60
49052;DHT22;34866;48.670;18.260;2023-07-31T02:28:25;358.80;2329.60
49052;DHT22;34866;48.670;18.260;2023-07-31T02:30:51;358.80;2329.60
49052;DHT22;34866;48.670;18.260;2023-07-31T02:33:17;358.70;2329.60
49052;DHT22;34866;48.670;18.260;2023-07-31T02:35:43;358.70;2329.60
49052;DHT22;34866;48.670;18.260;2023-07-31T02:38:09;358.70;2329.60
49052;DHT22;34866;48.670;18.260;2023-07-31T02:40:34;358.70;2329.60
49052;DHT22;34866;48.670;18.260;2023-07-31T02:43:00;358.60;2329.60
49052;DHT22;34866;48.670;18.260;2023-07-31T02:45:26;358.70;2329.60
49052;DHT22;34866;48.670;18.260;2023-07-31T02:47:51;358.70;2329.60
49052;DHT22;34866;48.670;18.260;2023-07-31T02:50:17;358.80;2329.60
49052;DHT22;34866;48.670;18.260;2023-07-31T02:52:44;358.80;2329.60
49052;DHT22;34866;48.670;18.260;2023-07-31T02:55:10;358.80;2329.60
49052;DHT22;34866;48.670;18.260;2023-07-31T02:57:36;358.80;2329.60
49052;DHT22;34866;48.670;18.260;2023-07-31T03:00:01;358.80;2329.60
49052;DHT22;34866;48.670;18.260;2023-07-31T03:02:31;358.80;2329.60
49052;DHT22;34866;48.670;18.260;2023-07-31T03:04:56;358.80;2329.60
49052;DHT22;34866;48.670;18.260;2023-07-31T03:07:22;358.80;2329.60
49052;DHT22;34866;48.670;18.260;2023-07-31T03:09:48;358.80;2329.60
49052;DHT22;34866;48.670;18.260;2023-07-31T03:12:13;358.80;2329.60
49052;DHT22;34866;48.670;18.260;2023-07-31T03:14:39;358.80;2329.60
49052;DHT22;34866;48.670;18.260;2023-07-31T03:17:05;358.80;2329.60
49052;DHT22;34866;48.670;18.260;2023-07-31T03:19:31;358.80;2329.60
49052;DHT22;34866;48.670;18.260;2023-07-31T03:21:58;358.80;2329.60
49052;DHT22;34866;48.670;18.260;2023-07-31T03:24:28;358.80;2329.60
49052;DHT22;34866;48.670;18.260;2023-07-31T03:26:57;358.70;2329.60
49052;DHT22;34866;48.670;18.260;2023-07-31T03:29:22;358.70;2329.60
49052;DHT22;34866;48.670;18.260;2023-07-31T03:31:48;358.70;2329.60
49052;DHT22;34866;48.670;18.260;2023-07-31T03:34:14;358.60;2329.60
49052;DHT22;34866;48.670;18.260;2023-07-31T03:36:39;358.70;2329.60
49052;DHT22;34866;48.670;18.260;2023-07-31T03:39:05;358.60;2329.60
49052;DHT22;34866;48.670;18.260;2023-07-31T03:41:30;358.70;2329.60
49052;DHT22;34866;48.670;18.260;2023-07-31T03:43:56;358.70;2329.60
49052;DHT22;34866;48.670;18.260;2023-07-31T03:46:23;358.70;2329.60
49052;DHT22;34866;48.670;18.260;2023-07-31T03:48:49;358.80;2329.60
49052;DHT22;34866;48.670;18.260;2023-07-31T03:51:18;358.70;2329.60
49052;DHT22;34866;48.670;18.260;2023-07-31T03:53:44;358.80;2329.60
49052;DHT22;34866;48.670;18.260;2023-07-31T03:56:11;358.80;2329.60
49052;DHT22;34866;48.670;18.260;2023-07-31T03:58:57;358.70;2329.60
49052;DHT22;34866;48.670;18.260;2023-07-31T04:01:32;358.70;2329.60
49052;DHT22;34866;48.670;18.260;2023-07-31T04:03:57;358.60;2329.60
49052;DHT22;34866;48.670;18.260;2023-07-31T04:06:38;358.60;2329.60
49052;DHT22;34866;48.670;18.260;2023-07-31T04:09:04;358.70;2329.60
49052;DHT22;34866;48.670;18.260;2023-07-31T04:11:34;358.60;2329.60
49052;DHT22;34866;48.670;18.260;2023-07-31T04:14:00;358.60;2329.60
49052;DHT22;34866;48.670;18.260;2023-07-31T04:16:27;358.60;2329.60
49052;DHT22;34866;48.670;18.260;2023-07-31T04:18:56;358.50;2329.60
49052;DHT22;34866;48.670;18.260;2023-07-31T04:21:26;358.60;2329.60
49052;DHT22;34866;48.670;18.260;2023-07-31T04:23:54;358.40;2329.60
49052;DHT22;34866;48.670;18.260;2023-07-31T04:26:22;358.40;2329.60
49052;DHT22;34866;48.670;18.260;2023-07-31T04:29:08;358.50;2329.60
49052;DHT22;34866;48.670;18.260;2023-07-31T04:31:34;358.40;2329.60
49052;DHT22;34866;48.670;18.260;2023-07-31T04:34:00;358.50;2329.60
49052;DHT22;34866;48.670;18.260;2023-07-31T04:36:28;358.50;2329.60
49052;DHT22;34866;48.670;18.260;2023-07-31T04:38:55;358.50;2329.60
49052;DHT22;34866;48.670;18.260;2023-07-31T04:41:21;358.50;2329.60
49052;DHT22;34866;48.670;18.260;2023-07-31T04:43:48;358.60;2329.60
49052;DHT22;34866;48.670;18.260;2023-07-31T04:46:37;358.70;2329.60
49052;DHT22;34866;48.670;18.260;2023-07-31T04:49:03;358.90;2329.60
49052;DHT22;34866;48.670;18.260;2023-07-31T04:51:35;359.00;2329.60
49052;DHT22;34866;48.670;18.260;2023-07-31T04:54:05;358.80;2329.60
49052;DHT22;34866;48.670;18.260;2023-07-31T04:56:34;358.90;2329.60
49052;DHT22;34866;48.670;18.260;2023-07-31T04:59:04;359.10;2329.60
49052;DHT22;34866;48.670;18.260;2023-07-31T05:01:30;359.20;2329.60
49052;DHT22;34866;48.670;18.260;2023-07-31T05:03:56;359.20;2329.60
49052;DHT22;34866;48.670;18.260;2023-07-31T05:06:21;359.30;2329.60
49052;DHT22;34866;48.670;18.260;2023-07-31T05:08:47;384.20;2329.60
49052;DHT22;34866;48.670;18.260;2023-07-31T05:11:13;384.40;2329.60
49052;DHT22;34866;48.670;18.260;2023-07-31T05:13:44;384.50;2329.60
49052;DHT22;34866;48.670;18.260;2023-07-31T05:16:13;384.70;2329.60
49052;DHT22;34866;48.670;18.260;2023-07-31T05:18:38;384.90;2329.60
49052;DHT22;34866;48.670;18.260;2023-07-31T05:21:07;384.70;2329.60
49052;DHT22;34866;48.670;18.260;2023-07-31T05:23:32;409.90;2355.20
49052;DHT22;34866;48.670;18.260;2023-07-31T05:26:07;410.00;2355.20
49052;DHT22;34866;48.670;18.260;2023-07-31T05:28:36;410.00;2355.20
49052;DHT22;34866;48.670;18.260;2023-07-31T05:31:03;410.10;2355.20
49052;DHT22;34866;48.670;18.260;2023-07-31T05:33:29;410.20;2355.20
49052;DHT22;34866;48.670;18.260;2023-07-31T05:35:56;410.40;2355.20
49052;DHT22;34866;48.670;18.260;2023-07-31T05:38:22;410.40;2355.20
49052;DHT22;34866;48.670;18.260;2023-07-31T05:40:48;410.50;2355.20
49052;DHT22;34866;48.670;18.260;2023-07-31T05:43:14;410.50;2355.20
49052;DHT22;34866;48.670;18.260;2023-07-31T05:45:43;410.50;2355.20
49052;DHT22;34866;48.670;18.260;2023-07-31T05:48:08;410.50;2355.20
49052;DHT22;34866;48.670;18.260;2023-07-31T05:50:34;435.20;2355.20
49052;DHT22;34866;48.670;18.260;2023-07-31T05:53:00;435.30;2355.20
49052;DHT22;34866;48.670;18.260;2023-07-31T05:55:26;435.40;2355.20
49052;DHT22;34866;48.670;18.260;2023-07-31T05:57:54;435.30;2355.20
49052;DHT22;34866;48.670;18.260;2023-07-31T06:00:20;435.30;2355.20
49052;DHT22;34866;48.670;18.260;2023-07-31T06:02:47;435.20;2355.20
49052;DHT22;34866;48.670;18.260;2023-07-31T06:05:13;435.30;2355.20
49052;DHT22;34866;48.670;18.260;2023-07-31T06:07:39;435.30;2355.20
49052;DHT22;34866;48.670;18.260;2023-07-31T06:10:05;435.40;2355.20
49052;DHT22;34866;48.670;18.260;2023-07-31T06:12:34;435.60;2355.20
49052;DHT22;34866;48.670;18.260;2023-07-31T06:15:01;435.70;2355.20
49052;DHT22;34866;48.670;18.260;2023-07-31T06:17:29;435.90;1894.40
49052;DHT22;34866;48.670;18.260;2023-07-31T06:19:55;436.00;1715.20
49052;DHT22;34866;48.670;18.260;2023-07-31T06:22:21;436.00;947.20
49052;DHT22;34866;48.670;18.260;2023-07-31T06:24:47;435.90;844.80
49052;DHT22;34866;48.670;18.260;2023-07-31T06:27:12;435.90;588.80
49052;DHT22;34866;48.670;18.260;2023-07-31T06:29:39;435.90;972.80
49052;DHT22;34866;48.670;18.260;2023-07-31T06:32:05;435.90;563.20
49052;DHT22;34866;48.670;18.260;2023-07-31T06:34:31;435.80;640.00
49052;DHT22;34866;48.670;18.260;2023-07-31T06:36:57;435.80;384.00
49052;DHT22;34866;48.670;18.260;2023-07-31T06:39:22;435.90;256.00
49052;DHT22;34866;48.670;18.260;2023-07-31T06:41:48;435.90;128.00
49052;DHT22;34866;48.670;18.260;2023-07-31T06:44:15;435.90;281.60
49052;DHT22;34866;48.670;18.260;2023-07-31T06:46:42;435.90;128.00
49052;DHT22;34866;48.670;18.260;2023-07-31T06:49:08;435.80;128.00
49052;DHT22;34866;48.670;18.260;2023-07-31T06:51:37;435.70;128.00
49052;DHT22;34866;48.670;18.260;2023-07-31T06:54:08;435.70;128.00
49052;DHT22;34866;48.670;18.260;2023-07-31T06:56:34;435.70;128.00
49052;DHT22;34866;48.670;18.260;2023-07-31T06:58:59;435.70;128.00
49052;DHT22;34866;48.670;18.260;2023-07-31T07:01:38;435.70;128.00
49052;DHT22;34866;48.670;18.260;2023-07-31T07:04:04;435.80;128.00
49052;DHT22;34866;48.670;18.260;2023-07-31T07:06:30;435.90;128.00
49052;DHT22;34866;48.670;18.260;2023-07-31T07:08:55;436.10;128.00
49052;DHT22;34866;48.670;18.260;2023-07-31T07:11:21;461.30;128.00
49052;DHT22;34866;48.670;18.260;2023-07-31T07:13:47;461.30;128.00
49052;DHT22;34866;48.670;18.260;2023-07-31T07:16:14;461.50;128.00
49052;DHT22;34866;48.670;18.260;2023-07-31T07:18:40;461.60;128.00
49052;DHT22;34866;48.670;18.260;2023-07-31T07:21:05;461.60;128.00
49052;DHT22;34866;48.670;18.260;2023-07-31T07:23:31;461.70;128.00
49052;DHT22;34866;48.670;18.260;2023-07-31T07:25:57;486.40;128.00
49052;DHT22;34866;48.670;18.260;2023-07-31T07:28:33;486.50;128.00
49052;DHT22;34866;48.670;18.260;2023-07-31T07:31:03;486.50;128.00
49052;DHT22;34866;48.670;18.260;2023-07-31T07:33:30;486.50;128.00
49052;DHT22;34866;48.670;18.260;2023-07-31T07:36:04;486.60;128.00
49052;DHT22;34866;48.670;18.260;2023-07-31T07:38:37;486.60;128.00
49052;DHT22;34866;48.670;18.260;2023-07-31T07:41:09;486.80;128.00
49052;DHT22;34866;48.670;18.260;2023-07-31T07:43:41;487.00;128.00
49052;DHT22;34866;48.670;18.260;2023-07-31T07:46:13;487.10;128.00
49052;DHT22;34866;48.670;18.260;2023-07-31T07:48:41;487.10;128.00
49052;DHT22;34866;48.670;18.260;2023-07-31T07:51:07;487.20;128.00
49052;DHT22;34866;48.670;18.260;2023-07-31T07:53:37;487.00;128.00
49052;DHT22;34866;48.670;18.260;2023-07-31T07:56:03;487.00;128.00
49052;DHT22;34866;48.670;18.260;2023-07-31T07:58:30;487.10;128.00
49052;DHT22;34866;48.670;18.260;2023-07-31T08:00:57;487.20;128.00
49052;DHT22;34866;48.670;18.260;2023-07-31T08:03:28;487.30;563.20
49052;DHT22;34866;48.670;18.260;2023-07-31T08:06:06;512.00;614.40
49052;DHT22;34866;48.670;18.260;2023-07-31T08:08:39;512.60;128.00
49052;DHT22;34866;48.670;18.260;2023-07-31T08:11:12;512.50;409.60
49052;DHT22;34866;48.670;18.260;2023-07-31T08:13:39;512.40;128.00
49052;DHT22;34866;48.670;18.260;2023-07-31T08:16:07;512.30;128.00
49052;DHT22;34866;48.670;18.260;2023-07-31T08:18:38;512.40;128.00
49052;DHT22;34866;48.670;18.260;2023-07-31T08:21:07;512.30;128.00
49052;DHT22;34866;48.670;18.260;2023-07-31T08:23:37;512.50;230.40
49052;DHT22;34866;48.670;18.260;2023-07-31T08:26:14;512.70;128.00
49052;DHT22;34866;48.670;18.260;2023-07-31T08:28:40;512.90;128.00
49052;DHT22;34866;48.670;18.260;2023-07-31T08:31:07;512.70;128.00
49052;DHT22;34866;48.670;18.260;2023-07-31T08:33:33;512.60;128.00
49052;DHT22;34866;48.670;18.260;2023-07-31T08:36:06;512.70;128.00
49052;DHT22;34866;48.670;18.260;2023-07-31T08:38:39;537.60;128.00
49052;DHT22;34866;48.670;18.260;2023-07-31T08:41:06;512.90;128.00
49052;DHT22;34866;48.670;18.260;2023-07-31T08:43:36;512.90;128.00
49052;DHT22;34866;48.670;18.260;2023-07-31T08:46:03;537.90;128.00
49052;DHT22;34866;48.670;18.260;2023-07-31T08:51:04;537.80;128.00
49052;DHT22;34866;48.670;18.260;2023-07-31T08:53:56;537.60;128.00
49052;DHT22;34866;48.670;18.260;2023-07-31T08:56:51;537.80;128.00
49052;DHT22;34866;48.670;18.260;2023-07-31T08:59:20;538.20;128.00
49052;DHT22;34866;48.670;18.260;2023-07-31T09:01:50;538.50;128.00
49052;DHT22;34866;48.670;18.260;2023-07-31T09:04:24;563.20;128.00
49052;DHT22;34866;48.670;18.260;2023-07-31T09:06:59;538.40;128.00
49052;DHT22;34866;48.670;18.260;2023-07-31T09:09:30;563.30;128.00
49052;DHT22;34866;48.670;18.260;2023-07-31T09:12:01;563.20;128.00
49052;DHT22;34866;48.670;18.260;2023-07-31T09:14:27;538.00;128.00
49052;DHT22;34866;48.670;18.260;2023-07-31T09:16:57;538.00;128.00
49052;DHT22;34866;48.670;18.260;2023-07-31T09:19:49;538.30;128.00
49052;DHT22;34866;48.670;18.260;2023-07-31T09:22:32;538.50;128.00
49052;DHT22;34866;48.670;18.260;2023-07-31T09:25:21;538.40;128.00
49052;DHT22;34866;48.670;18.260;2023-07-31T09:27:57;563.20;128.00
49052;DHT22;34866;48.670;18.260;2023-07-31T09:30:25;563.20;128.00
49052;DHT22;34866;48.670;18.260;2023-07-31T09:33:03;563.30;128.00
49052;DHT22;34866;48.670;18.260;2023-07-31T09:35:34;563.30;128.00
49052;DHT22;34866;48.670;18.260;2023-07-31T09:38:03;563.40;128.00
49052;DHT22;34866;48.670;18.260;2023-07-31T09:40:33;563.40;128.00
49052;DHT22;34866;48.670;18.260;2023-07-31T09:43:03;563.40;128.00
49052;DHT22;34866;48.670;18.260;2023-07-31T09:45:32;563.50;128.00
49052;DHT22;34866;48.670;18.260;2023-07-31T09:47:58;563.60;128.00
49052;DHT22;34866;48.670;18.260;2023-07-31T09:50:24;563.80;128.00
49052;DHT22;34866;48.670;18.260;2023-07-31T09:52:53;588.90;128.00
49052;DHT22;34866;48.670;18.260;2023-07-31T09:55:19;588.80;128.00
49052;DHT22;34866;48.670;18.260;2023-07-31T09:58:06;588.90;128.00
49052;DHT22;34866;48.670;18.260;2023-07-31T10:00:35;589.40;128.00
49052;DHT22;34866;48.670;18.260;2023-07-31T10:03:04;588.90;128.00
49052;DHT22;34866;48.670;18.260;2023-07-31T10:05:42;564.00;128.00
49052;DHT22;34866;48.670;18.260;2023-07-31T10:08:10;564.10;128.00
49052;DHT22;34866;48.670;18.260;2023-07-31T10:10:41;589.00;128.00
49052;DHT22;34866;48.670;18.260;2023-07-31T10:13:08;588.80;128.00
49052;DHT22;34866;48.670;18.260;2023-07-31T10:15:34;588.90;128.00
49052;DHT22;34866;48.670;18.260;2023-07-31T10:18:01;589.20;128.00
49052;DHT22;34866;48.670;18.260;2023-07-31T10:20:28;588.90;128.00
49052;DHT22;34866;48.670;18.260;2023-07-31T10:22:59;589.20;128.00
49052;DHT22;34866;48.670;18.260;2023-07-31T10:25:26;589.20;128.00
49052;DHT22;34866;48.670;18.260;2023-07-31T10:27:53;564.00;128.00
49052;DHT22;34866;48.670;18.260;2023-07-31T10:30:23;563.80;128.00
49052;DHT22;34866;48.670;18.260;2023-07-31T10:32:51;589.20;128.00
49052;DHT22;34866;48.670;18.260;2023-07-31T10:35:18;589.20;128.00
49052;DHT22;34866;48.670;18.260;2023-07-31T10:37:44;589.40;128.00
49052;DHT22;34866;48.670;18.260;2023-07-31T10:40:18;589.60;128.00
49052;DHT22;34866;48.670;18.260;2023-07-31T10:42:51;589.50;588.80
49052;DHT22;34866;48.670;18.260;2023-07-31T10:45:42;589.50;128.00
49052;DHT22;34866;48.670;18.260;2023-07-31T10:48:13;589.50;537.60
49052;DHT22;34866;48.670;18.260;2023-07-31T10:50:52;614.60;179.20
49052;DHT22;34866;48.670;18.260;2023-07-31T10:55:53;614.70;128.00
49052;DHT22;34866;48.670;18.260;2023-07-31T10:58:23;614.80;230.40
49052;DHT22;34866;48.670;18.260;2023-07-31T11:00:48;614.80;128.00
49052;DHT22;34866;48.670;18.260;2023-07-31T11:03:16;614.60;128.00
49052;DHT22;34866;48.670;18.260;2023-07-31T11:06:01;614.60;128.00
49052;DHT22;34866;48.670;18.260;2023-07-31T11:08:33;615.00;128.00
49052;DHT22;34866;48.670;18.260;2023-07-31T11:13:29;614.60;128.00
49052;DHT22;34866;48.670;18.260;2023-07-31T11:15:55;589.60;128.00
49052;DHT22;34866;48.670;18.260;2023-07-31T11:18:21;589.40;128.00
49052;DHT22;34866;48.670;18.260;2023-07-31T11:20:53;614.40;128.00
49052;DHT22;34866;48.670;18.260;2023-07-31T11:23:19;614.40;128.00
49052;DHT22;34866;48.670;18.260;2023-07-31T11:25:47;614.50;128.00
49052;DHT22;34866;48.670;18.260;2023-07-31T11:28:13;614.70;128.00
49052;DHT22;34866;48.670;18.260;2023-07-31T11:30:41;614.80;128.00
49052;DHT22;34866;48.670;18.260;2023-07-31T11:33:28;614.80;128.00
49052;DHT22;34866;48.670;18.260;2023-07-31T11:36:20;614.80;128.00
49052;DHT22;34866;48.670;18.260;2023-07-31T11:39:09;614.90;128.00
49052;DHT22;34866;48.670;18.260;2023-07-31T11:42:10;614.80;128.00
49052;DHT22;34866;48.670;18.260;2023-07-31T11:44:40;614.80;128.00
49052;DHT22;34866;48.670;18.260;2023-07-31T11:47:26;614.90;128.00
49052;DHT22;34866;48.670;18.260;2023-07-31T11:49:51;640.00;128.00
49052;DHT22;34866;48.670;18.260;2023-07-31T11:52:19;640.00;128.00
49052;DHT22;34866;48.670;18.260;2023-07-31T11:54:50;640.20;128.00
49052;DHT22;34866;48.670;18.260;2023-07-31T11:57:37;640.20;128.00
49052;DHT22;34866;48.670;18.260;2023-07-31T12:00:06;640.30;128.00
49052;DHT22;34866;48.670;18.260;2023-07-31T12:02:35;640.30;128.00
49052;DHT22;34866;48.670;18.260;2023-07-31T12:05:01;640.10;128.00
49052;DHT22;34866;48.670;18.260;2023-07-31T12:07:27;615.10;128.00
49052;DHT22;34866;48.670;18.260;2023-07-31T12:13:25;615.30;128.00
49052;DHT22;34866;48.670;18.260;2023-07-31T12:15:59;640.10;128.00
49052;DHT22;34866;48.670;18.260;2023-07-31T12:18:26;640.00;128.00
49052;DHT22;34866;48.670;18.260;2023-07-31T12:20:57;640.30;128.00
49052;DHT22;34866;48.670;18.260;2023-07-31T12:23:30;615.30;128.00
49052;DHT22;34866;48.670;18.260;2023-07-31T12:26:13;640.00;128.00
49052;DHT22;34866;48.670;18.260;2023-07-31T12:28:43;640.50;128.00
49052;DHT22;34866;48.670;18.260;2023-07-31T12:31:14;640.30;128.00
49052;DHT22;34866;48.670;18.260;2023-07-31T12:33:41;640.10;128.00
49052;DHT22;34866;48.670;18.260;2023-07-31T12:36:18;615.20;128.00
49052;DHT22;34866;48.670;18.260;2023-07-31T12:38:46;640.00;128.00
49052;DHT22;34866;48.670;18.260;2023-07-31T12:41:12;640.30;128.00
49052;DHT22;34866;48.670;18.260;2023-07-31T12:43:40;640.50;128.00
49052;DHT22;34866;48.670;18.260;2023-07-31T12:46:06;640.70;128.00
49052;DHT22;34866;48.670;18.260;2023-07-31T12:48:37;640.20;128.00
49052;DHT22;34866;48.670;18.260;2023-07-31T12:51:03;640.40;128.00
49052;DHT22;34866;48.670;18.260;2023-07-31T12:53:32;640.10;128.00
49052;DHT22;34866;48.670;18.260;2023-07-31T12:55:58;640.40;128.00
49052;DHT22;34866;48.670;18.260;2023-07-31T12:58:24;640.50;128.00
49052;DHT22;34866;48.670;18.260;2023-07-31T13:00:50;640.70;128.00
49052;DHT22;34866;48.670;18.260;2023-07-31T13:03:17;640.50;128.00
49052;DHT22;34866;48.670;18.260;2023-07-31T13:05:45;640.70;128.00
49052;DHT22;34866;48.670;18.260;2023-07-31T13:08:10;640.90;128.00
49052;DHT22;34866;48.670;18.260;2023-07-31T13:10:42;665.60;153.60
49052;DHT22;34866;48.670;18.260;2023-07-31T13:13:09;640.80;128.00
49052;DHT22;34866;48.670;18.260;2023-07-31T13:15:35;640.70;128.00
49052;DHT22;34866;48.670;18.260;2023-07-31T13:18:00;666.00;153.60
49052;DHT22;34866;48.670;18.260;2023-07-31T13:20:26;640.90;128.00
49052;DHT22;34866;48.670;18.260;2023-07-31T13:22:52;640.90;128.00
49052;DHT22;34866;48.670;18.260;2023-07-31T13:25:19;665.70;153.60
49052;DHT22;34866;48.670;18.260;2023-07-31T13:27:45;640.70;128.00
49052;DHT22;34866;48.670;18.260;2023-07-31T13:30:10;640.70;128.00
49052;DHT22;34866;48.670;18.260;2023-07-31T13:33:02;640.70;128.00
49052;DHT22;34866;48.670;18.260;2023-07-31T13:35:48;640.90;128.00
49052;DHT22;34866;48.670;18.260;2023-07-31T13:38:36;665.80;153.60
49052;DHT22;34866;48.670;18.260;2023-07-31T13:41:02;665.80;153.60
49052;DHT22;34866;48.670;18.260;2023-07-31T13:43:28;640.90;128.00
49052;DHT22;34866;48.670;18.260;2023-07-31T13:46:14;640.60;128.00
49052;DHT22;34866;48.670;18.260;2023-07-31T13:48:46;640.90;128.00
49052;DHT22;34866;48.670;18.260;2023-07-31T13:51:12;640.50;128.00
49052;DHT22;34866;48.670;18.260;2023-07-31T13:53:37;640.70;128.00
49052;DHT22;34866;48.670;18.260;2023-07-31T13:56:03;640.80;128.00
49052;DHT22;34866;48.670;18.260;2023-07-31T13:58:29;665.80;153.60
49052;DHT22;34866;48.670;18.260;2023-07-31T14:00:58;665.90;153.60
49052;DHT22;34866;48.670;18.260;2023-07-31T14:03:23;665.80;153.60
49052;DHT22;34866;48.670;18.260;2023-07-31T14:05:49;665.70;153.60
49052;DHT22;34866;48.670;18.260;2023-07-31T14:08:14;640.90;128.00
49052;DHT22;34866;48.670;18.260;2023-07-31T14:11:00;640.90;128.00
49052;DHT22;34866;48.670;18.260;2023-07-31T14:13:26;640.80;128.00
49052;DHT22;34866;48.670;18.260;2023-07-31T14:15:51;665.90;153.60
49052;DHT22;34866;48.670;18.260;2023-07-31T14:18:18;666.00;153.60
49052;DHT22;34866;48.670;18.260;2023-07-31T14:20:44;666.10;153.60
49052;DHT22;34866;48.670;18.260;2023-07-31T14:23:10;666.10;153.60
49052;DHT22;34866;48.670;18.260;2023-07-31T14:25:38;665.70;153.60
49052;DHT22;34866;48.670;18.260;2023-07-31T14:28:04;640.50;128.00
49052;DHT22;34866;48.670;18.260;2023-07-31T14:30:30;665.70;153.60
49052;DHT22;34866;48.670;18.260;2023-07-31T14:33:02;666.10;153.60
49052;DHT22;34866;48.670;18.260;2023-07-31T14:35:28;640.90;128.00
49052;DHT22;34866;48.670;18.260;2023-07-31T14:38:14;640.70;128.00
49052;DHT22;34866;48.670;18.260;2023-07-31T14:40:42;640.90;128.00
49052;DHT22;34866;48.670;18.260;2023-07-31T14:43:10;640.90;128.00
49052;DHT22;34866;48.670;18.260;2023-07-31T14:45:36;640.90;128.00
49052;DHT22;34866;48.670;18.260;2023-07-31T14:48:28;665.70;153.60
49052;DHT22;34866;48.670;18.260;2023-07-31T14:51:00;666.50;153.60
49052;DHT22;34866;48.670;18.260;2023-07-31T14:53:26;666.00;153.60
49052;DHT22;34866;48.670;18.260;2023-07-31T14:55:52;666.30;153.60
49052;DHT22;34866;48.670;18.260;2023-07-31T14:58:18;665.90;153.60
49052;DHT22;34866;48.670;18.260;2023-07-31T15:00:44;666.00;153.60
49052;DHT22;34866;48.670;18.260;2023-07-31T15:03:10;640.90;128.00
49052;DHT22;34866;48.670;18.260;2023-07-31T15:05:36;665.80;153.60
49052;DHT22;34866;48.670;18.260;2023-07-31T15:08:02;640.80;128.00
49052;DHT22;34866;48.670;18.260;2023-07-31T15:10:28;640.70;128.00